Time;durP1;ratioP1;P1;durP2;ratioP2;P2;SDS_P1;SDS_P2;PMS_P1;PMS_P2;Temp;Humidity;BMP_temperature;BMP_pressure;BME280_temperature;BME280_humidity;BME280_pressure;Samples;Min_cycle;Max_cycle;Signal;HPM_P1;HPM_P2
2022/11/13 00:01:25;;;;;;;13.30;6.80;;;;;;;8.31;77.47;100317.17;24565;1334;3052297;-68
2022/11/13 00:04:13;;;;;;;15.00;7.80;;;;;;;8.45;76.39;100328.34;24484;1334;3053744;-66
2022/11/13 00:07:01;;;;;;;14.50;8.50;;;;;;;8.15;77.16;100330.13;24504;1323;3052487;-66
2022/11/13 00:09:49;;;;;;;15.00;8.10;;;;;;;8.11;77.02;100322.76;24531;1336;3053499;-67
2022/11/13 00:12:38;;;;;;;17.10;8.60;;;;;;;7.81;78.62;100318.27;24578;1327;3048753;-70
2022/11/13 00:15:25;;;;;;;16.10;9.30;;;;;;;7.59;79.62;100323.41;24491;1332;3069134;-68
2022/11/13 00:18:13;;;;;;;10.80;6.20;;;;;;;7.43;80.88;100321.67;24524;1334;3050975;-68
2022/11/13 00:21:10;;;;;;;14.40;7.20;;;;;;;8.14;79.09;100317.23;24532;1334;3056870;-68
2022/11/13 00:23:58;;;;;;;18.30;7.90;;;;;;;8.66;76.80;100310.93;24595;1334;3054043;-70
2022/11/13 00:26:46;;;;;;;16.10;8.90;;;;;;;8.45;76.68;100314.89;24553;1334;3053965;-65
2022/11/13 00:29:33;;;;;;;15.00;8.60;;;;;;;8.25;77.50;100310.91;24547;1331;3051654;-69
2022/11/13 00:32:21;;;;;;;16.40;8.30;;;;;;;7.97;78.86;100315.08;24512;1333;3053962;-68
2022/11/13 00:35:11;;;;;;;21.40;9.30;;;;;;;7.91;79.28;100307.80;24521;1334;3050490;-68
2022/11/13 00:37:59;;;;;;;20.40;9.50;;;;;;;7.70;80.13;100304.69;24494;1330;3068527;-68
2022/11/13 00:40:47;;;;;;;12.30;7.30;;;;;;;7.89;79.43;100302.45;24523;1334;3050206;-64
2022/11/13 00:43:35;;;;;;;11.30;6.20;;;;;;;8.48;78.61;100297.86;24531;1334;3056604;-66
2022/11/13 00:46:22;;;;;;;12.60;7.40;;;;;;;8.80;76.96;100283.88;24497;1319;3052465;-65
2022/11/13 00:49:11;;;;;;;16.50;9.10;;;;;;;8.80;77.02;100285.98;24476;1334;3053297;-64
2022/11/13 00:52:01;;;;;;;19.80;9.50;;;;;;;8.57;77.45;100291.75;24557;1333;3052058;-67
2022/11/13 00:54:51;;;;;;;17.30;8.60;;;;;;;8.40;78.20;100285.39;24541;1334;3052478;-65
2022/11/13 00:57:39;;;;;;;18.90;9.70;;;;;;;8.17;79.03;100288.38;24476;1333;3050852;-66
2022/11/13 01:00:26;;;;;;;21.70;9.50;;;;;;;8.06;79.68;100285.63;24490;1334;3068717;-65
2022/11/13 01:03:15;;;;;;;10.40;6.10;;;;;;;7.95;80.49;100279.58;24526;1327;3050895;-70
2022/11/13 01:06:12;;;;;;;12.10;5.90;;;;;;;8.77;78.96;100273.50;24462;1333;3057601;-71
2022/11/13 01:09:00;;;;;;;14.40;7.70;;;;;;;9.12;76.59;100265.77;24558;1334;3051958;-67
2022/11/13 01:11:48;;;;;;;15.40;7.80;;;;;;;9.02;76.67;100264.81;24553;1340;3052897;-65
2022/11/13 01:14:36;;;;;;;18.10;9.00;;;;;;;8.78;77.44;100267.88;24566;1334;3052910;-69
2022/11/13 01:17:24;;;;;;;18.90;8.90;;;;;;;8.42;78.35;100277.13;24582;1334;3052091;-68
2022/11/13 01:20:11;;;;;;;15.10;9.10;;;;;;;8.27;78.45;100275.95;24556;1334;3051029;-66
2022/11/13 01:23:00;;;;;;;19.00;10.20;;;;;;;8.06;79.25;100275.32;24545;1324;3069364;-68
2022/11/13 01:25:48;;;;;;;12.10;6.90;;;;;;;7.99;80.29;100278.91;24471;1334;3052006;-67
2022/11/13 01:28:36;;;;;;;12.50;6.40;;;;;;;8.24;80.22;100281.27;24539;1326;3057614;-66
2022/11/13 01:31:27;;;;;;;13.80;7.30;;;;;;;8.56;79.16;100267.86;24566;1327;3053411;-66
2022/11/13 01:34:16;;;;;;;16.40;9.10;;;;;;;8.68;78.49;100261.11;24575;1334;3054136;-66
2022/11/13 01:37:04;;;;;;;14.50;8.10;;;;;;;8.49;79.29;100271.98;24442;1327;3053471;-66
2022/11/13 01:39:52;;;;;;;21.50;9.20;;;;;;;8.33;79.84;100272.21;24560;1325;3053542;-67
2022/11/13 01:42:40;;;;;;;20.40;10.20;;;;;;;8.14;80.75;100276.62;24470;1327;3048947;-67
2022/11/13 01:45:59;;;;;;;13.00;7.80;;;;;;;8.05;82.08;100282.18;24474;1333;3068434;-65
2022/11/13 01:48:53;;;;;;;20.00;8.20;;;;;;;8.91;80.69;100265.27;24507;1335;3051301;-69
2022/11/13 01:51:47;;;;;;;18.60;9.00;;;;;;;9.03;79.95;100259.33;24533;1334;3055435;-66
2022/11/13 01:54:41;;;;;;;23.30;10.00;;;;;;;8.74;80.91;100264.52;24507;1327;3054411;-67
2022/11/13 01:57:34;;;;;;;19.30;9.70;;;;;;;8.66;81.68;100263.99;24595;1331;3054655;-71
2022/11/13 02:00:21;;;;;;;19.10;10.20;;;;;;;8.54;82.44;100274.95;24553;1323;3052749;-69
2022/11/13 02:03:09;;;;;;;20.80;10.50;;;;;;;8.40;83.34;100271.28;24543;1324;3052222;-68
2022/11/13 02:05:58;;;;;;;17.80;8.10;;;;;;;8.50;82.70;100262.86;24546;1326;3050862;-68
2022/11/13 02:08:48;;;;;;;13.60;7.30;;;;;;;9.18;81.79;100263.79;24550;1331;3070575;-69
2022/11/13 02:11:36;;;;;;;17.00;8.60;;;;;;;9.60;79.71;100250.28;24605;1324;3050445;-65
2022/11/13 02:14:25;;;;;;;18.80;9.10;;;;;;;9.43;79.75;100244.54;24551;1334;3058236;-66
2022/11/13 02:17:17;;;;;;;17.20;9.10;;;;;;;9.37;80.06;100244.80;24607;1323;3054092;-69
2022/11/13 02:20:06;;;;;;;20.40;10.60;;;;;;;9.00;81.24;100254.20;24592;1331;3054574;-67
2022/11/13 02:23:18;;;;;;;19.50;10.60;;;;;;;8.74;82.69;100249.69;24533;1331;3052532;-66
2022/11/13 02:26:06;;;;;;;17.10;7.40;;;;;;;8.66;84.14;100259.61;24594;1330;3052550;-64
2022/11/13 02:28:53;;;;;;;16.50;7.20;;;;;;;9.45;81.46;100248.15;24506;1333;3049556;-66
2022/11/13 02:31:41;;;;;;;17.70;8.00;;;;;;;9.66;79.69;100244.22;24565;1324;3069384;-65
2022/11/13 02:34:30;;;;;;;16.40;8.80;;;;;;;9.54;79.64;100247.19;24597;1331;3050596;-67
2022/11/13 02:37:19;;;;;;;16.10;9.20;;;;;;;9.36;80.52;100247.13;24530;1331;3058910;-67
2022/11/13 02:40:10;;;;;;;16.40;10.00;;;;;;;9.14;81.42;100252.23;24530;1331;3052879;-65
2022/11/13 02:42:57;;;;;;;15.10;8.50;;;;;;;8.96;81.94;100251.77;24576;1334;3053573;-69
2022/11/13 02:45:45;;;;;;;13.60;7.20;;;;;;;8.90;82.81;100249.02;24564;1331;3051892;-65
2022/11/13 02:48:33;;;;;;;13.40;6.80;;;;;;;9.58;81.35;100237.06;24525;1331;3053858;-68
2022/11/13 02:51:20;;;;;;;18.20;8.00;;;;;;;9.88;79.33;100234.67;24615;1324;3050756;-67
2022/11/13 02:54:10;;;;;;;15.90;9.00;;;;;;;9.72;79.58;100236.27;24444;1331;3069648;-65
2022/11/13 02:56:57;;;;;;;20.70;8.50;;;;;;;9.47;80.16;100236.52;24531;1325;3049650;-64
2022/11/13 02:59:46;;;;;;;18.30;9.10;;;;;;;9.17;81.39;100240.77;24636;1334;3056798;-66
2022/11/13 03:02:34;;;;;;;13.80;8.30;;;;;;;9.01;82.43;100240.21;24557;1322;3052939;-71
2022/11/13 03:05:22;;;;;;;13.70;6.00;;;;;;;8.98;82.88;100242.06;24518;1331;3053787;-68
2022/11/13 03:08:10;;;;;;;12.30;6.10;;;;;;;9.61;81.07;100234.15;24488;1327;3051928;-69
2022/11/13 03:10:59;;;;;;;15.00;6.40;;;;;;;10.12;78.86;100219.07;24536;1323;3052859;-69
2022/11/13 03:13:46;;;;;;;13.30;6.70;;;;;;;10.19;78.35;100218.39;24544;1324;3048985;-66
2022/11/13 03:17:00;;;;;;;14.50;6.70;;;;;;;9.64;79.71;100226.10;24563;1324;3069837;-67
2022/11/13 03:19:47;;;;;;;14.20;7.60;;;;;;;9.25;81.33;100228.16;24541;1337;3049813;-64
2022/11/13 03:22:35;;;;;;;13.30;6.00;;;;;;;9.06;82.34;100227.92;24567;1333;3057531;-69
2022/11/13 03:25:22;;;;;;;8.00;4.70;;;;;;;9.11;82.54;100225.27;24602;1327;3052160;-66
2022/11/13 03:28:10;;;;;;;9.40;4.50;;;;;;;9.78;80.74;100222.73;24493;1326;3052431;-64
2022/11/13 03:30:58;;;;;;;10.00;4.70;;;;;;;10.06;78.96;100222.14;24558;1327;3052072;-64
2022/11/13 03:33:47;;;;;;;10.60;5.10;;;;;;;9.92;79.16;100219.27;24514;1330;3053659;-64
2022/11/13 03:36:35;;;;;;;11.00;5.30;;;;;;;9.56;80.39;100231.02;24483;1340;3049192;-69
2022/11/13 03:39:23;;;;;;;10.30;5.20;;;;;;;9.36;81.25;100229.11;24499;1329;3070037;-63
2022/11/13 03:42:11;;;;;;;8.80;5.00;;;;;;;9.34;81.48;100228.48;24514;1334;3049534;-67
2022/11/13 03:44:59;;;;;;;7.30;4.40;;;;;;;9.26;82.07;100226.36;24511;1339;3058082;-65
2022/11/13 03:47:47;;;;;;;8.30;3.90;;;;;;;9.75;81.11;100223.53;24492;1332;3052773;-73
2022/11/13 03:50:35;;;;;;;9.60;4.90;;;;;;;10.04;79.36;100209.61;24521;1323;3053461;-69
2022/11/13 03:53:23;;;;;;;18.80;5.90;;;;;;;9.93;79.31;100206.28;24538;1324;3052092;-73
2022/11/13 03:56:11;;;;;;;11.20;6.00;;;;;;;9.69;80.30;100209.82;24532;1334;3052665;-65
2022/11/13 03:58:58;;;;;;;15.10;7.90;;;;;;;9.46;81.36;100210.28;24615;1324;3052250;-71
2022/11/13 04:01:47;;;;;;;15.60;8.40;;;;;;;9.24;82.43;100216.83;24553;1333;3070115;-73
2022/11/13 04:04:35;;;;;;;11.70;6.00;;;;;;;9.33;82.42;100213.83;24545;1331;3050402;-72
2022/11/13 04:07:23;;;;;;;13.70;6.70;;;;;;;9.97;80.87;100212.05;24544;1322;3057711;-71
2022/11/13 04:10:13;;;;;;;14.10;7.00;;;;;;;10.13;79.55;100212.34;24578;1326;3054046;-72
2022/11/13 04:13:01;;;;;;;15.40;8.40;;;;;;;9.99;80.05;100210.03;24533;1340;3054685;-71
2022/11/13 04:15:49;;;;;;;18.50;9.50;;;;;;;9.92;79.95;100215.79;24555;1323;3052675;-71
2022/11/13 04:18:38;;;;;;;20.00;9.60;;;;;;;9.58;81.39;100216.41;24594;1331;3051673;-71
2022/11/13 04:21:26;;;;;;;20.10;9.20;;;;;;;9.42;81.99;100228.52;24677;1341;3049499;-71
2022/11/13 04:24:14;;;;;;;11.10;5.60;;;;;;;9.36;82.38;100225.77;24700;1331;3069395;-70
2022/11/13 04:27:01;;;;;;;14.90;6.00;;;;;;;10.28;80.42;100214.45;25203;1331;3050207;-70
2022/11/13 04:29:48;;;;;;;11.70;6.30;;;;;;;10.38;78.86;100215.92;24547;1324;3058360;-71
2022/11/13 04:32:37;;;;;;;13.10;5.90;;;;;;;10.19;78.96;100214.16;24551;1331;3055616;-70
2022/11/13 04:35:25;;;;;;;12.70;6.30;;;;;;;9.93;80.02;100214.83;24564;1324;3053801;-69
2022/11/13 04:38:12;;;;;;;11.20;6.70;;;;;;;9.77;80.47;100222.07;24606;1324;3051249;-71
2022/11/13 04:44:06;;;;;;;8.80;5.10;;;;;;;9.54;82.36;100229.54;24612;1333;3048222;-70
2022/11/13 04:46:54;;;;;;;8.10;4.90;;;;;;;10.21;80.66;100220.04;24488;1340;3069670;-68
2022/11/13 04:49:42;;;;;;;10.00;5.30;;;;;;;10.43;79.06;100216.41;24471;1334;3050113;-65
2022/11/13 04:52:30;;;;;;;10.40;6.10;;;;;;;10.13;80.03;100229.88;24473;1334;3056944;-74
2022/11/13 04:55:18;;;;;;;10.50;5.80;;;;;;;9.87;80.77;100233.48;24588;1333;3053904;-70
2022/11/13 04:58:06;;;;;;;12.60;6.70;;;;;;;9.64;82.03;100237.69;24612;1334;3052271;-72
2022/11/13 05:00:54;;;;;;;12.40;6.60;;;;;;;9.49;82.78;100241.31;24577;1329;3052136;-71
2022/11/13 05:03:42;;;;;;;8.10;4.10;;;;;;;9.49;83.19;100237.65;24589;1334;3052785;-71
2022/11/13 05:06:30;;;;;;;7.10;3.90;;;;;;;10.04;81.54;100232.73;24604;1326;3052523;-72
2022/11/13 05:09:17;;;;;;;7.30;4.90;;;;;;;10.38;79.92;100225.04;24573;1325;3068120;-71
2022/11/13 05:12:06;;;;;;;7.70;4.90;;;;;;;10.35;79.34;100220.45;24602;1331;3049408;-72
2022/11/13 05:14:54;;;;;;;8.30;5.10;;;;;;;10.15;79.90;100228.34;24614;1341;3056931;-72
2022/11/13 05:17:42;;;;;;;8.10;4.70;;;;;;;10.00;80.41;100240.06;24613;1324;3053517;-72
2022/11/13 05:20:30;;;;;;;6.60;4.70;;;;;;;9.82;81.14;100241.97;24601;1340;3053617;-73
2022/11/13 05:23:17;;;;;;;6.00;3.20;;;;;;;9.67;81.98;100245.23;24557;1324;3052786;-72
2022/11/13 05:26:07;;;;;;;6.10;3.20;;;;;;;10.32;80.49;100244.58;24554;1331;3053129;-72
2022/11/13 05:28:57;;;;;;;5.40;3.40;;;;;;;10.47;79.17;100238.64;24539;1330;3049139;-73
2022/11/13 05:31:45;;;;;;;7.50;3.90;;;;;;;10.33;79.14;100244.70;24527;1333;3069004;-73
2022/11/13 05:34:33;;;;;;;8.60;4.30;;;;;;;10.00;80.19;100246.92;24605;1337;3049650;-74
2022/11/13 05:37:21;;;;;;;7.60;4.40;;;;;;;9.72;81.01;100242.38;24533;1331;3058486;-72
2022/11/13 05:40:10;;;;;;;6.20;3.90;;;;;;;9.48;81.97;100246.75;24597;1323;3053279;-73
2022/11/13 05:42:57;;;;;;;4.90;2.60;;;;;;;9.45;82.46;100240.94;24560;1332;3052693;-73
2022/11/13 05:45:46;;;;;;;4.60;2.60;;;;;;;10.18;80.92;100231.56;24618;1331;3052153;-72
2022/11/13 05:48:34;;;;;;;5.60;3.10;;;;;;;10.58;78.87;100225.48;24611;1324;3055047;-73
2022/11/13 05:51:24;;;;;;;5.60;3.20;;;;;;;10.27;78.35;100229.75;24592;1324;3050471;-72
2022/11/13 05:54:13;;;;;;;5.40;3.40;;;;;;;9.99;79.57;100229.80;24561;1334;3069758;-73
2022/11/13 05:57:01;;;;;;;5.60;3.60;;;;;;;9.79;80.11;100230.90;24585;1337;3051063;-73
2022/11/13 05:59:49;;;;;;;5.80;3.50;;;;;;;9.50;81.43;100234.44;24593;1331;3057812;-73
2022/11/13 06:02:37;;;;;;;3.90;2.60;;;;;;;9.39;82.42;100247.16;24561;1327;3052606;-74
2022/11/13 06:05:25;;;;;;;4.10;2.40;;;;;;;10.29;80.02;100232.61;24562;1328;3053119;-74
2022/11/13 06:08:13;;;;;;;3.80;2.90;;;;;;;10.39;78.51;100230.58;24581;1324;3052555;-74
2022/11/13 06:11:03;;;;;;;6.00;3.10;;;;;;;10.28;78.46;100219.86;24600;1330;3054150;-73
2022/11/13 06:13:51;;;;;;;4.20;3.10;;;;;;;10.15;78.56;100226.28;24620;1330;3048704;-73
2022/11/13 06:16:41;;;;;;;4.50;2.90;;;;;;;9.93;79.16;100227.96;24560;1329;3070116;-73
2022/11/13 06:19:29;;;;;;;4.90;2.50;;;;;;;9.76;79.65;100237.83;24582;1331;3050699;-73
2022/11/13 06:22:16;;;;;;;3.40;1.80;;;;;;;9.75;79.57;100231.92;24639;1329;3056824;-74
2022/11/13 06:25:05;;;;;;;2.50;1.80;;;;;;;10.41;77.73;100225.43;24580;1331;3056308;-74
2022/11/13 06:27:53;;;;;;;3.40;2.00;;;;;;;11.11;75.26;100224.30;24566;1330;3054666;-73
2022/11/13 06:30:40;;;;;;;3.70;2.20;;;;;;;10.72;74.78;100230.91;24654;1324;3052571;-73
2022/11/13 06:33:28;;;;;;;2.10;1.90;;;;;;;10.53;75.50;100238.67;24604;1325;3052497;-72
2022/11/13 06:36:17;;;;;;;2.80;2.00;;;;;;;10.37;75.86;100237.85;24612;1340;3049688;-71
2022/11/13 06:39:06;;;;;;;3.30;2.00;;;;;;;10.15;76.17;100239.58;24535;1330;3069518;-74
2022/11/13 06:41:54;;;;;;;3.10;2.10;;;;;;;9.94;77.00;100235.27;24639;1331;3049837;-75
2022/11/13 06:44:43;;;;;;;1.50;1.10;;;;;;;9.85;77.71;100243.37;24518;1333;3057655;-74
2022/11/13 06:47:31;;;;;;;2.40;1.50;;;;;;;10.52;75.57;100232.61;24571;1334;3052359;-73
2022/11/13 06:50:19;;;;;;;2.50;1.50;;;;;;;10.91;73.72;100229.30;24515;1333;3054705;-68
2022/11/13 06:53:07;;;;;;;2.20;1.60;;;;;;;10.84;73.59;100215.10;24510;1327;3051571;-70
2022/11/13 06:55:55;;;;;;;2.40;1.50;;;;;;;10.59;74.36;100214.76;24529;1334;3052371;-67
2022/11/13 06:58:43;;;;;;;3.70;1.90;;;;;;;10.38;75.04;100214.70;24529;1331;3049282;-69
2022/11/13 07:01:31;;;;;;;3.80;2.20;;;;;;;10.13;75.94;100222.85;24565;1333;3068695;-67
2022/11/13 07:04:18;;;;;;;3.00;2.10;;;;;;;9.93;76.87;100211.70;24569;1340;3051530;-70
2022/11/13 07:07:06;;;;;;;3.50;2.50;;;;;;;9.84;77.03;100208.79;24544;1332;3056342;-70
2022/11/13 07:09:54;;;;;;;2.00;1.60;;;;;;;9.86;77.51;100215.00;24572;1337;3052738;-68
2022/11/13 07:13:07;;;;;;;2.20;1.60;;;;;;;10.54;75.52;100209.74;24522;1326;3052785;-70
2022/11/13 07:16:00;;;;;;;3.20;2.00;;;;;;;10.86;74.22;100196.61;24492;1333;3051419;-68
2022/11/13 07:18:50;;;;;;;3.80;2.50;;;;;;;10.85;73.73;100192.96;24518;1333;3052685;-67
2022/11/13 07:21:38;;;;;;;2.90;2.40;;;;;;;10.54;74.52;100198.18;24541;1333;3050898;-66
2022/11/13 07:24:26;;;;;;;4.10;2.50;;;;;;;10.32;75.69;100205.70;24531;1337;3069092;-67
2022/11/13 07:27:14;;;;;;;4.40;2.30;;;;;;;10.14;76.14;100200.56;24462;1337;3050688;-70
2022/11/13 07:30:02;;;;;;;3.40;2.60;;;;;;;10.03;76.79;100204.61;24558;1333;3057808;-67
2022/11/13 07:32:49;;;;;;;4.20;1.60;;;;;;;9.99;77.53;100216.30;24529;1333;3054755;-73
2022/11/13 07:35:37;;;;;;;2.60;1.90;;;;;;;10.78;75.27;100212.21;24510;1336;3054093;-67
2022/11/13 07:38:25;;;;;;;3.50;2.40;;;;;;;11.03;73.93;100208.89;24546;1327;3050908;-68
2022/11/13 07:41:12;;;;;;;6.20;2.50;;;;;;;10.95;73.71;100208.05;24592;1339;3053342;-69
2022/11/13 07:44:00;;;;;;;3.30;2.40;;;;;;;10.66;74.47;100208.25;24561;1333;3050076;-68
2022/11/13 07:46:48;;;;;;;4.10;2.90;;;;;;;10.47;75.40;100211.11;24573;1334;3069464;-69
2022/11/13 07:49:36;;;;;;;3.40;2.80;;;;;;;10.27;75.99;100225.55;24542;1334;3050164;-67
2022/11/13 07:52:24;;;;;;;4.00;2.30;;;;;;;10.07;76.93;100223.84;24554;1340;3058214;-68
2022/11/13 07:55:12;;;;;;;4.00;2.80;;;;;;;9.99;77.31;100224.05;24567;1326;3054537;-70
2022/11/13 07:58:00;;;;;;;2.40;1.60;;;;;;;10.13;77.14;100215.67;24556;1334;3054754;-70
2022/11/13 08:01:16;;;;;;;2.50;1.70;;;;;;;10.99;75.29;100208.06;24571;1326;3051627;-70
2022/11/13 08:04:05;;;;;;;3.90;2.40;;;;;;;11.27;71.86;100216.27;24559;1334;3053022;-69
2022/11/13 08:06:53;;;;;;;6.00;2.80;;;;;;;10.99;72.30;100205.75;24522;1327;3051002;-70
2022/11/13 08:09:41;;;;;;;3.40;2.40;;;;;;;10.69;72.85;100210.56;24491;1334;3068983;-68
2022/11/13 08:12:28;;;;;;;4.60;3.00;;;;;;;10.62;73.57;100217.09;24595;1334;3050507;-67
2022/11/13 08:15:16;;;;;;;4.10;3.10;;;;;;;10.31;74.63;100223.23;24548;1332;3057405;-68
2022/11/13 08:18:29;;;;;;;6.30;3.90;;;;;;;10.20;73.89;100217.09;24546;1327;3053427;-66
2022/11/13 08:21:17;;;;;;;6.10;3.90;;;;;;;10.05;74.75;100219.76;24565;1324;3054293;-69
2022/11/13 08:24:05;;;;;;;6.00;3.70;;;;;;;9.95;74.59;100241.17;24604;1324;3050836;-70
2022/11/13 08:26:53;;;;;;;6.80;2.80;;;;;;;10.00;75.12;100219.94;24556;1333;3053129;-70
2022/11/13 08:29:40;;;;;;;5.40;2.60;;;;;;;10.81;72.77;100208.63;24539;1332;3049683;-66
2022/11/13 08:32:28;;;;;;;5.30;2.80;;;;;;;11.05;71.54;100199.70;24550;1327;3069474;-69
2022/11/13 08:35:16;;;;;;;6.60;3.40;;;;;;;11.06;70.95;100199.45;24557;1334;3050354;-66
2022/11/13 08:38:05;;;;;;;4.80;2.70;;;;;;;10.89;70.98;100195.94;24551;1326;3056328;-68
2022/11/13 08:41:03;;;;;;;4.80;3.10;;;;;;;10.67;71.63;100201.74;24561;1332;3052102;-66
2022/11/13 08:43:51;;;;;;;4.30;2.80;;;;;;;10.26;72.44;100204.23;24534;1340;3053607;-67
2022/11/13 08:46:39;;;;;;;4.50;2.80;;;;;;;10.30;72.38;100196.52;24503;1334;3052231;-69
2022/11/13 08:49:27;;;;;;;3.80;2.80;;;;;;;10.29;72.13;100198.14;24530;1319;3052475;-69
2022/11/13 08:52:15;;;;;;;4.00;2.50;;;;;;;10.23;72.20;100201.77;25423;1331;3049871;-68
2022/11/13 08:55:01;;;;;;;4.40;2.90;;;;;;;10.23;72.20;100196.67;25028;1334;3068891;-67
2022/11/13 08:57:49;;;;;;;2.40;1.50;;;;;;;10.33;72.14;100194.97;25430;1337;3052796;-70
2022/11/13 09:00:37;;;;;;;2.60;1.60;;;;;;;11.14;69.74;100191.34;25442;1334;3050008;-70
2022/11/13 09:03:24;;;;;;;2.70;1.50;;;;;;;11.56;67.55;100196.86;25410;1324;3068523;-70
2022/11/13 09:06:12;;;;;;;2.40;1.80;;;;;;;11.43;67.14;100188.95;25405;1320;3050842;-71
2022/11/13 09:09:00;;;;;;;4.40;2.00;;;;;;;11.28;67.27;100192.39;25411;1326;3057100;-69
2022/11/13 09:11:48;;;;;;;3.20;2.30;;;;;;;10.97;67.46;100185.34;25413;1337;3053371;-70
2022/11/13 09:14:35;;;;;;;7.10;3.00;;;;;;;10.79;68.26;100178.01;25432;1333;3054512;-69
2022/11/13 09:17:23;;;;;;;3.30;2.50;;;;;;;10.90;68.23;100170.29;25415;1329;3051090;-70
2022/11/13 09:20:10;;;;;;;4.30;2.40;;;;;;;10.92;68.45;100160.20;25420;1337;3052249;-70
2022/11/13 09:22:59;;;;;;;3.90;2.20;;;;;;;10.84;68.45;100165.14;25425;1334;3049298;-69
2022/11/13 09:26:12;;;;;;;4.10;2.20;;;;;;;10.76;68.68;100163.63;25400;1328;3069124;-71
2022/11/13 09:29:00;;;;;;;3.60;2.20;;;;;;;10.85;68.40;100148.82;25424;1327;3050761;-71
2022/11/13 09:31:49;;;;;;;2.80;2.20;;;;;;;10.63;68.81;100163.05;25419;1336;3056797;-67
2022/11/13 09:34:37;;;;;;;4.00;2.30;;;;;;;10.67;68.31;100166.53;25409;1330;3052493;-71
2022/11/13 09:37:24;;;;;;;3.40;2.10;;;;;;;10.59;68.48;100164.85;25422;1331;3054210;-72
2022/11/13 09:40:16;;;;;;;4.20;2.10;;;;;;;10.69;68.38;100167.46;25411;1327;3051359;-72
2022/11/13 09:43:05;;;;;;;3.10;2.20;;;;;;;10.63;68.79;100176.39;25361;1327;3052350;-67
2022/11/13 09:45:57;;;;;;;2.80;2.20;;;;;;;10.68;68.75;100172.80;25434;1330;3050785;-70
2022/11/13 09:48:56;;;;;;;4.70;2.60;;;;;;;10.73;68.32;100167.33;25365;1327;3069125;-67
2022/11/13 09:51:58;;;;;;;4.40;2.50;;;;;;;10.73;68.18;100163.80;25368;1334;3050311;-67
2022/11/13 09:54:46;;;;;;;3.40;2.40;;;;;;;10.74;68.19;100159.90;25397;1336;3057200;-70
2022/11/13 09:57:41;;;;;;;3.60;1.90;;;;;;;10.63;68.45;100172.20;25424;1334;3053043;-70
2022/11/13 10:00:29;;;;;;;3.60;2.50;;;;;;;10.88;68.13;100160.23;25359;1343;3053101;-72
2022/11/13 10:03:39;;;;;;;5.00;2.60;;;;;;;10.81;67.56;100158.47;25386;1327;3051115;-69
2022/11/13 10:06:42;;;;;;;4.50;2.60;;;;;;;10.84;67.74;100147.27;25389;1333;3053912;-70
2022/11/13 10:09:36;;;;;;;6.30;2.40;;;;;;;10.84;67.44;100153.46;25390;1327;3049440;-69
2022/11/13 10:12:26;;;;;;;2.80;1.70;;;;;;;10.88;67.49;100145.17;25383;1333;3069661;-71
2022/11/13 10:15:13;;;;;;;4.00;2.00;;;;;;;10.87;67.25;100146.61;25366;1326;3051305;-69
2022/11/13 10:18:27;;;;;;;2.80;2.00;;;;;;;10.86;67.20;100146.48;30892;1341;3013453;-72
2022/11/13 10:21:44;;;;;;;3.30;2.00;;;;;;;10.89;67.35;100148.60;24517;1337;3069808;-70
2022/11/13 10:24:42;;;;;;;3.40;1.90;;;;;;;10.94;66.88;100144.49;24522;1340;3050184;-70
2022/11/13 10:27:31;;;;;;;2.50;2.10;;;;;;;10.97;67.25;100144.56;24533;1340;3057099;-69
2022/11/13 10:30:19;;;;;;;2.60;1.90;;;;;;;11.05;67.06;100139.89;24509;1334;3053072;-69
2022/11/13 10:33:07;;;;;;;4.00;2.10;;;;;;;10.93;67.64;100141.95;24165;1326;3052957;-69
2022/11/13 10:36:06;;;;;;;3.10;2.10;;;;;;;10.84;68.03;100142.39;25430;1333;3056255;-72
2022/11/13 10:39:00;;;;;;;4.30;2.10;;;;;;;10.94;67.58;100132.44;25431;1326;3053034;-71
2022/11/13 10:41:51;;;;;;;3.70;2.00;;;;;;;10.98;67.22;100139.27;25445;1332;3052905;-70
2022/11/13 10:44:39;;;;;;;9.50;2.20;;;;;;;10.88;67.08;100142.32;25443;1331;3050635;-68
2022/11/13 10:47:30;;;;;;;3.10;2.30;;;;;;;10.94;66.85;100137.67;25419;1324;3051612;-71
2022/11/13 10:50:21;;;;;;;2.90;2.50;;;;;;;11.07;66.72;100127.90;25414;1331;3050319;-73
2022/11/13 10:53:16;;;;;;;3.40;2.70;;;;;;;11.17;66.50;100132.44;25429;1330;3069971;-70
2022/11/13 10:56:33;;;;;;;3.60;2.40;;;;;;;11.32;65.88;100129.90;25443;1332;3050279;-70
2022/11/13 10:59:21;;;;;;;2.50;2.00;;;;;;;11.21;66.25;100131.39;25457;1334;3056887;-67
2022/11/13 11:02:18;;;;;;;3.60;2.60;;;;;;;11.25;66.15;100132.92;25441;1340;3053404;-70
2022/11/13 11:05:17;;;;;;;2.80;2.10;;;;;;;11.37;65.62;100124.04;25439;1331;3054197;-67
2022/11/13 11:08:07;;;;;;;3.30;2.40;;;;;;;11.56;65.57;100123.89;25432;1331;3050906;-70
2022/11/13 11:14:23;;;;;;;3.70;2.40;;;;;;;11.57;65.28;100113.49;25459;1320;3049554;-68
2022/11/13 11:17:12;;;;;;;3.80;2.40;;;;;;;11.57;64.64;100107.68;25444;1336;3069039;-71
2022/11/13 11:20:03;;;;;;;3.90;3.00;;;;;;;11.43;65.18;100101.59;25442;1329;3050336;-70
2022/11/13 11:23:40;;;;;;;5.40;2.30;;;;;;;11.43;65.45;100098.60;25454;1333;3057347;-71
2022/11/13 11:31:13;;;;;;;3.60;2.60;;;;;;;11.59;65.50;100095.83;30935;1333;3013628;-69
2022/11/13 12:04:01;;;;;;;3.90;2.90;;;;;;;11.65;66.24;100074.80;31003;1337;3013512;-69
2022/11/13 12:07:09;;;;;;;4.90;2.90;;;;;;;11.88;65.68;100067.02;24500;1338;3070186;-71
2022/11/13 12:10:19;;;;;;;5.50;3.20;;;;;;;11.79;65.86;100069.98;24546;1337;3050142;-68
2022/11/13 12:13:40;;;;;;;6.30;2.80;;;;;;;11.91;65.63;100066.71;24541;1339;3056842;-67
2022/11/13 12:16:30;;;;;;;3.50;2.40;;;;;;;11.93;65.40;100061.67;24102;1335;3054279;-68
2022/11/13 12:19:31;;;;;;;6.90;3.00;;;;;;;12.17;64.79;100056.64;24522;1341;3049746;-71
2022/11/13 12:22:25;;;;;;;7.60;2.70;;;;;;;12.21;64.53;100054.11;24545;1330;3055787;-68
2022/11/13 12:26:01;;;;;;;4.70;3.30;;;;;;;12.22;64.53;100047.90;24565;1336;3052161;-71
2022/11/13 12:29:25;;;;;;;4.70;2.80;;;;;;;12.09;64.49;100047.43;24459;1336;3052847;-70
2022/11/13 12:32:13;;;;;;;3.50;2.50;;;;;;;12.04;64.66;100038.56;24599;1327;3049611;-69
2022/11/13 12:35:13;;;;;;;3.60;2.50;;;;;;;11.98;64.86;100036.84;24558;1316;3052951;-70
2022/11/13 12:38:06;;;;;;;4.20;2.90;;;;;;;12.01;64.82;100046.66;24535;1327;3050255;-69
2022/11/13 12:41:14;;;;;;;5.10;2.40;;;;;;;12.01;64.75;100050.31;24574;1331;3070061;-69
2022/11/13 12:44:15;;;;;;;3.70;2.60;;;;;;;11.88;64.86;100052.83;24585;1331;3051486;-72
2022/11/13 12:47:02;;;;;;;3.40;2.50;;;;;;;11.78;65.30;100057.58;24557;1331;3057643;-70
2022/11/13 12:50:18;;;;;;;7.30;2.40;;;;;;;11.83;65.13;100047.49;24664;1331;3054346;-70
2022/11/13 12:53:08;;;;;;;3.30;2.10;;;;;;;11.76;65.13;100056.64;24724;1331;3052952;-72
2022/11/13 12:55:59;;;;;;;6.70;2.70;;;;;;;11.75;65.05;100053.02;24514;1334;3050963;-70
2022/11/13 12:59:07;;;;;;;3.50;2.20;;;;;;;11.65;65.38;100062.54;24532;1324;3052733;-71
2022/11/13 13:02:16;;;;;;;5.70;3.00;;;;;;;11.67;64.99;100050.65;24565;1332;3050188;-69
2022/11/13 13:05:07;;;;;;;4.10;2.70;;;;;;;11.70;65.03;100067.34;24625;1325;3068933;-67
2022/11/13 13:08:07;;;;;;;5.20;2.50;;;;;;;11.62;65.28;100059.90;24559;1331;3053182;-68
2022/11/13 13:11:18;;;;;;;5.90;3.10;;;;;;;11.67;65.28;100059.59;24578;1323;3057968;-67
2022/11/13 13:14:20;;;;;;;5.10;2.90;;;;;;;11.62;65.22;100067.08;24582;1325;3052536;-68
2022/11/13 13:17:13;;;;;;;3.70;2.60;;;;;;;11.66;65.40;100056.52;24606;1326;3054206;-70
2022/11/13 13:20:04;;;;;;;2.90;2.30;;;;;;;11.67;65.30;100062.23;24565;1326;3051767;-68
2022/11/13 13:22:56;;;;;;;5.90;2.50;;;;;;;11.59;65.13;100058.14;24613;1324;3052615;-70
2022/11/13 13:25:44;;;;;;;6.00;2.50;;;;;;;11.57;65.54;100057.68;24578;1334;3049442;-73
2022/11/13 13:28:32;;;;;;;5.00;2.80;;;;;;;11.58;65.21;100071.49;24559;1331;3069019;-71
2022/11/13 13:31:33;;;;;;;3.70;2.70;;;;;;;11.51;65.42;100060.84;24560;1331;3050956;-70
2022/11/13 13:34:33;;;;;;;4.40;2.70;;;;;;;11.47;65.31;100062.79;24550;1331;3058335;-68
2022/11/13 13:37:45;;;;;;;3.60;2.50;;;;;;;11.43;65.67;100059.19;24600;1323;3054271;-71
2022/11/13 13:40:38;;;;;;;3.90;2.70;;;;;;;11.45;65.67;100052.02;24586;1333;3053352;-70